Time;durP1;ratioP1;P1;durP2;ratioP2;P2;SDS_P1;SDS_P2;PMS_P1;PMS_P2;Temp;Humidity;BMP_temperature;BMP_pressure;BME280_temperature;BME280_humidity;BME280_pressure;Samples;Min_cycle;Max_cycle;Signal;HPM_P1;HPM_P2
2022/05/09 00:01:06;;;;;;;7.97;5.07;;;9.00;99.90;;;;;;4826928;29;20641;-66
2022/05/09 00:03:55;;;;;;;9.57;5.73;;;9.00;99.90;;;;;;4819330;29;20493;-64
2022/05/09 00:06:45;;;;;;;7.23;5.47;;;8.90;99.90;;;;;;4828592;29;20464;-64
2022/05/09 00:09:33;;;;;;;7.23;5.10;;;8.90;99.90;;;;;;4827449;29;20466;-65
2022/05/09 00:12:22;;;;;;;7.60;4.97;;;8.80;99.90;;;;;;4825876;29;20494;-65
2022/05/09 00:15:11;;;;;;;5.77;4.80;;;8.80;99.90;;;;;;4828663;29;20532;-64
2022/05/09 00:18:00;;;;;;;8.73;5.53;;;8.80;99.90;;;;;;4830357;29;20518;-64
2022/05/09 00:20:48;;;;;;;6.47;4.70;;;8.80;99.90;;;;;;4831295;29;20550;-64
2022/05/09 00:23:38;;;;;;;5.93;4.87;;;8.70;99.90;;;;;;4824082;29;21004;-65
2022/05/09 00:26:31;;;;;;;7.63;4.20;;;8.70;99.90;;;;;;4819971;29;20533;-64
2022/05/09 00:29:20;;;;;;;4.83;4.37;;;8.60;99.90;;;;;;4829387;29;20544;-64
2022/05/09 00:32:09;;;;;;;5.30;4.43;;;8.50;99.90;;;;;;4825809;29;20485;-64
2022/05/09 00:34:57;;;;;;;8.07;4.80;;;8.50;99.90;;;;;;4827474;29;20576;-64
2022/05/09 00:37:45;;;;;;;6.77;4.50;;;8.50;99.90;;;;;;4827301;29;20560;-64
2022/05/09 00:40:35;;;;;;;6.30;4.20;;;8.40;99.90;;;;;;4827457;29;20505;-64
2022/05/09 00:43:31;;;;;;;5.50;4.17;;;8.40;99.90;;;;;;4828105;29;21038;-64
2022/05/09 00:46:19;;;;;;;7.80;4.30;;;8.40;99.90;;;;;;4826550;29;20646;-64
2022/05/09 00:49:15;;;;;;;6.23;3.97;;;8.30;99.90;;;;;;4829271;29;20464;-64
2022/05/09 00:52:09;;;;;;;5.03;3.67;;;8.20;99.90;;;;;;4825769;29;20576;-64
2022/05/09 00:55:03;;;;;;;6.67;3.73;;;8.20;99.90;;;;;;4825237;29;22569;-63
2022/05/09 00:58:01;;;;;;;4.27;3.17;;;8.20;99.90;;;;;;4826892;29;22458;-64
2022/05/09 01:00:51;;;;;;;5.00;3.77;;;8.20;99.90;;;;;;4830432;29;20461;-64
2022/05/09 01:03:43;;;;;;;8.17;3.80;;;8.20;99.90;;;;;;4827446;29;20488;-64
2022/05/09 01:06:32;;;;;;;4.20;3.20;;;8.10;99.90;;;;;;4825981;29;20989;-64
2022/05/09 01:09:21;;;;;;;4.53;3.70;;;8.00;99.90;;;;;;4825335;29;21098;-64
2022/05/09 01:12:12;;;;;;;4.00;2.97;;;8.00;99.90;;;;;;4824415;29;20496;-65
2022/05/09 01:15:06;;;;;;;4.70;3.30;;;8.00;99.90;;;;;;4825973;29;20509;-65
2022/05/09 01:17:55;;;;;;;4.90;3.43;;;8.00;99.90;;;;;;4828995;29;20564;-65
2022/05/09 01:20:43;;;;;;;3.73;3.00;;;7.90;99.90;;;;;;4824197;29;20560;-65
2022/05/09 01:23:36;;;;;;;4.47;3.27;;;7.80;99.90;;;;;;4828015;29;20476;-65
2022/05/09 01:26:24;;;;;;;4.80;2.97;;;7.80;99.90;;;;;;4822405;29;22456;-65
2022/05/09 01:29:16;;;;;;;4.80;3.00;;;7.70;99.90;;;;;;4817601;29;21511;-64
2022/05/09 01:32:08;;;;;;;4.23;3.03;;;7.70;99.90;;;;;;4822787;29;21040;-64
2022/05/09 01:35:02;;;;;;;3.77;2.70;;;7.60;99.90;;;;;;4827917;29;20503;-65
2022/05/09 01:37:56;;;;;;;4.83;3.00;;;7.50;99.90;;;;;;4825443;29;20476;-64
2022/05/09 01:40:46;;;;;;;4.00;2.60;;;7.50;99.90;;;;;;4825121;29;20487;-64
2022/05/09 01:43:36;;;;;;;3.43;2.80;;;7.50;99.90;;;;;;4819907;29;20491;-64
2022/05/09 01:46:27;;;;;;;4.93;2.90;;;7.50;99.90;;;;;;4822348;29;20496;-64
2022/05/09 01:49:32;;;;;;;4.00;2.90;;;7.40;99.90;;;;;;4820250;29;20800;-63
2022/05/09 01:52:21;;;;;;;4.10;2.77;;;7.40;99.90;;;;;;4825366;29;20605;-65
2022/05/09 01:55:09;;;;;;;3.20;2.90;;;7.40;99.90;;;;;;4827987;29;20476;-63
2022/05/09 01:57:59;;;;;;;5.37;2.90;;;7.30;99.90;;;;;;4828272;29;20563;-63
2022/05/09 02:00:47;;;;;;;4.67;2.90;;;7.30;99.90;;;;;;4823881;29;20539;-64
2022/05/09 02:03:36;;;;;;;4.70;3.10;;;7.20;99.90;;;;;;4823678;29;20485;-65
2022/05/09 02:06:24;;;;;;;3.20;2.87;;;7.20;99.90;;;;;;4823198;29;20492;-65
2022/05/09 02:09:12;;;;;;;2.80;2.50;;;7.20;99.90;;;;;;4826868;29;20563;-63
2022/05/09 02:12:01;;;;;;;3.63;2.63;;;7.10;99.90;;;;;;4822408;29;20485;-64
2022/05/09 02:14:51;;;;;;;4.87;3.20;;;7.10;99.90;;;;;;4829002;29;21017;-63
2022/05/09 02:17:40;;;;;;;4.00;2.70;;;7.00;99.90;;;;;;4823076;29;21164;-62
2022/05/09 02:20:29;;;;;;;4.50;2.63;;;7.00;99.90;;;;;;4826442;29;20617;-65
2022/05/09 02:23:17;;;;;;;4.50;3.47;;;7.00;99.90;;;;;;4826851;29;20480;-65
2022/05/09 02:26:05;;;;;;;5.63;3.40;;;7.00;99.90;;;;;;4826272;29;20658;-65
2022/05/09 02:28:53;;;;;;;4.70;3.27;;;7.00;99.90;;;;;;4825823;29;20469;-65
2022/05/09 02:31:43;;;;;;;4.77;3.07;;;7.00;99.90;;;;;;4824103;29;20480;-65
2022/05/09 02:34:31;;;;;;;4.73;3.07;;;6.90;99.90;;;;;;4827996;29;20541;-64
2022/05/09 02:37:19;;;;;;;4.57;3.27;;;6.90;99.90;;;;;;4829690;29;20457;-64
2022/05/09 02:40:08;;;;;;;3.90;3.20;;;6.90;99.90;;;;;;4830940;29;20628;-63
2022/05/09 02:42:57;;;;;;;4.03;3.17;;;6.80;99.90;;;;;;4826346;29;20583;-64
2022/05/09 02:45:46;;;;;;;4.13;3.53;;;6.80;99.90;;;;;;4828653;29;21387;-65
2022/05/09 02:48:37;;;;;;;5.83;3.57;;;6.70;99.90;;;;;;4828744;29;20469;-65
2022/05/09 02:51:25;;;;;;;5.33;3.80;;;6.70;99.90;;;;;;4826924;29;20459;-63
2022/05/09 02:54:13;;;;;;;5.87;3.80;;;6.70;99.90;;;;;;4830424;29;20508;-64
2022/05/09 02:57:01;;;;;;;6.57;4.67;;;6.70;99.90;;;;;;4824809;29;20945;-64
2022/05/09 02:59:49;;;;;;;5.03;3.37;;;6.60;99.90;;;;;;4828393;29;20927;-64
2022/05/09 03:02:37;;;;;;;4.70;3.70;;;6.60;99.90;;;;;;4822990;29;22484;-63
2022/05/09 03:05:26;;;;;;;6.13;3.57;;;6.60;99.90;;;;;;4824336;29;21011;-64
2022/05/09 03:08:15;;;;;;;8.23;3.60;;;6.60;99.90;;;;;;4823002;29;20465;-64
2022/05/09 03:11:03;;;;;;;6.03;4.33;;;6.50;99.90;;;;;;4822740;29;21697;-64
2022/05/09 03:13:51;;;;;;;3.40;3.10;;;6.50;99.90;;;;;;4825232;29;20559;-64
2022/05/09 03:16:39;;;;;;;6.27;4.40;;;6.50;99.90;;;;;;4823009;29;20664;-64
2022/05/09 03:19:28;;;;;;;4.93;3.70;;;6.40;99.90;;;;;;4822478;29;20958;-65
2022/05/09 03:22:17;;;;;;;5.47;4.00;;;6.40;99.90;;;;;;4821391;29;20523;-64
2022/05/09 03:25:06;;;;;;;6.03;3.80;;;6.40;99.90;;;;;;4826869;29;20640;-63
2022/05/09 03:27:54;;;;;;;6.30;4.00;;;6.40;99.90;;;;;;4827481;29;20577;-64
2022/05/09 03:30:44;;;;;;;6.03;3.63;;;6.30;99.90;;;;;;4828094;29;20524;-64
2022/05/09 03:33:32;;;;;;;5.33;3.90;;;6.30;99.90;;;;;;4825576;29;20556;-64
2022/05/09 03:36:20;;;;;;;5.37;4.10;;;6.30;99.90;;;;;;4824599;29;20576;-64
2022/05/09 03:39:10;;;;;;;6.07;3.70;;;6.30;99.90;;;;;;4827332;29;20469;-64
2022/05/09 03:41:58;;;;;;;6.40;4.10;;;6.30;99.90;;;;;;4825800;29;21225;-63
2022/05/09 03:44:46;;;;;;;4.60;3.73;;;6.30;99.90;;;;;;4827021;29;20564;-64
2022/05/09 03:47:34;;;;;;;4.10;3.40;;;6.30;99.90;;;;;;4826733;29;20580;-64
2022/05/09 03:50:23;;;;;;;7.10;4.60;;;6.20;99.90;;;;;;4829389;29;20487;-64
2022/05/09 03:53:11;;;;;;;3.93;3.60;;;6.30;99.90;;;;;;4825267;29;20541;-64
2022/05/09 03:56:02;;;;;;;4.80;4.00;;;6.30;99.90;;;;;;4823649;29;20531;-64
2022/05/09 03:58:54;;;;;;;4.03;3.47;;;6.30;99.90;;;;;;4829412;29;20802;-63
2022/05/09 04:01:42;;;;;;;4.97;3.50;;;6.30;99.90;;;;;;4824785;29;20555;-64
2022/05/09 04:04:30;;;;;;;8.00;4.00;;;6.20;99.90;;;;;;4827211;29;20484;-64
2022/05/09 04:07:19;;;;;;;4.57;3.90;;;6.20;99.90;;;;;;4825047;29;20547;-62
2022/05/09 04:10:09;;;;;;;5.47;3.30;;;6.20;99.90;;;;;;4828169;29;20469;-64
2022/05/09 04:12:59;;;;;;;4.03;3.63;;;6.20;99.90;;;;;;4826564;29;20618;-63
2022/05/09 04:18:59;;;;;;;7.17;5.27;;;6.20;99.90;;;;;;4826512;29;20594;-63
2022/05/09 04:21:47;;;;;;;6.00;3.77;;;6.20;99.90;;;;;;4824722;29;20469;-63
2022/05/09 04:24:35;;;;;;;4.70;3.67;;;6.30;99.90;;;;;;4826726;29;20646;-64
2022/05/09 04:27:23;;;;;;;4.00;3.30;;;6.30;99.90;;;;;;4817233;29;20586;-64
2022/05/09 04:30:14;;;;;;;6.77;4.37;;;6.30;99.90;;;;;;4821570;29;20573;-63
2022/05/09 04:33:04;;;;;;;4.23;3.63;;;6.40;99.90;;;;;;4822563;29;20653;-64
2022/05/09 04:35:54;;;;;;;8.40;4.20;;;6.40;99.90;;;;;;4822138;29;20513;-64
2022/05/09 04:38:43;;;;;;;7.60;4.20;;;6.50;99.90;;;;;;4822355;29;20512;-64
2022/05/09 04:41:32;;;;;;;4.53;3.50;;;6.60;99.90;;;;;;4824262;29;20548;-64
2022/05/09 04:44:22;;;;;;;4.87;3.90;;;6.70;99.90;;;;;;4822041;29;20496;-64
2022/05/09 04:47:12;;;;;;;6.47;3.20;;;6.70;99.90;;;;;;4821169;29;20554;-65
2022/05/09 04:50:01;;;;;;;6.20;3.60;;;6.90;99.90;;;;;;4822988;29;20588;-68
2022/05/09 04:52:50;;;;;;;7.73;3.70;;;7.00;99.90;;;;;;4822824;29;20523;-65
2022/05/09 04:55:38;;;;;;;7.93;3.60;;;7.20;99.90;;;;;;4822417;29;20505;-62
2022/05/09 04:58:27;;;;;;;10.50;3.70;;;7.30;99.90;;;;;;4819377;29;20557;-64
2022/05/09 05:01:15;;;;;;;7.07;3.63;;;7.40;99.90;;;;;;4824603;29;20464;-63
2022/05/09 05:04:06;;;;;;;4.03;3.37;;;7.50;99.90;;;;;;4825906;29;20528;-64
2022/05/09 05:06:54;;;;;;;5.87;3.23;;;7.60;99.90;;;;;;4820260;29;20505;-64
2022/05/09 05:09:42;;;;;;;4.33;3.60;;;7.60;99.90;;;;;;4821333;29;20841;-64
2022/05/09 05:12:30;;;;;;;5.90;3.50;;;7.70;99.90;;;;;;4819415;29;20489;-65
2022/05/09 05:15:18;;;;;;;8.33;4.00;;;7.80;99.90;;;;;;4823264;29;20586;-64
2022/05/09 05:18:07;;;;;;;6.30;3.30;;;7.90;99.90;;;;;;4823781;29;20548;-66
2022/05/09 05:20:57;;;;;;;4.80;3.50;;;8.00;99.90;;;;;;4823619;29;20594;-64
2022/05/09 05:23:47;;;;;;;10.90;3.67;;;8.10;99.90;;;;;;4821485;29;20586;-65
2022/05/09 05:26:35;;;;;;;4.93;3.63;;;8.20;99.90;;;;;;4825482;29;20469;-64
2022/05/09 05:29:24;;;;;;;6.40;3.30;;;8.30;99.90;;;;;;4822133;29;20468;-65
2022/05/09 05:32:15;;;;;;;5.83;3.53;;;8.30;99.90;;;;;;4819942;29;20917;-64
2022/05/09 05:35:05;;;;;;;8.03;3.80;;;8.40;99.90;;;;;;4822109;29;20509;-64
2022/05/09 05:37:55;;;;;;;8.00;3.40;;;8.50;99.90;;;;;;4829355;29;20457;-64
2022/05/09 05:40:43;;;;;;;6.60;3.83;;;8.60;99.90;;;;;;4816239;29;20510;-64
2022/05/09 05:43:34;;;;;;;5.53;3.67;;;8.70;99.90;;;;;;4821768;29;20802;-65
2022/05/09 05:46:23;;;;;;;7.93;3.67;;;8.70;99.90;;;;;;4820744;29;20867;-64
2022/05/09 05:49:11;;;;;;;7.50;3.87;;;8.80;99.90;;;;;;4822992;29;20667;-64
2022/05/09 05:52:02;;;;;;;4.13;2.93;;;8.90;99.90;;;;;;4818107;29;20491;-64
2022/05/09 05:54:52;;;;;;;5.03;3.80;;;9.00;99.90;;;;;;4825750;29;20485;-64
2022/05/09 05:57:42;;;;;;;6.93;2.90;;;9.10;99.90;;;;;;4828274;29;20551;-67
2022/05/09 06:00:31;;;;;;;8.03;3.77;;;9.20;99.90;;;;;;4823285;29;21033;-64
2022/05/09 06:03:20;;;;;;;4.60;2.70;;;9.30;99.90;;;;;;4824644;29;20521;-65
2022/05/09 06:06:08;;;;;;;5.63;3.17;;;9.30;99.90;;;;;;4821858;29;20489;-63
2022/05/09 06:08:56;;;;;;;6.90;2.90;;;9.40;99.90;;;;;;4824167;29;20521;-65
2022/05/09 06:11:46;;;;;;;7.43;3.30;;;9.50;99.90;;;;;;4824228;29;20460;-65
2022/05/09 06:14:34;;;;;;;5.10;2.93;;;9.60;99.90;;;;;;4823845;29;20919;-65
2022/05/09 06:17:22;;;;;;;7.40;3.20;;;9.80;99.90;;;;;;4826185;29;20471;-65
2022/05/09 06:20:12;;;;;;;7.93;3.07;;;9.80;99.90;;;;;;4821146;29;20476;-64
2022/05/09 06:23:03;;;;;;;11.17;3.70;;;9.90;99.90;;;;;;4822660;29;20532;-65
2022/05/09 06:25:52;;;;;;;4.97;3.40;;;10.00;99.90;;;;;;4827875;29;20507;-64
2022/05/09 06:28:42;;;;;;;6.43;2.87;;;10.00;99.90;;;;;;4826894;29;20637;-64
2022/05/09 06:31:30;;;;;;;3.33;2.73;;;10.20;99.90;;;;;;4828703;29;20990;-65
2022/05/09 06:34:18;;;;;;;8.43;2.60;;;10.20;99.90;;;;;;4824995;29;20484;-64
2022/05/09 06:37:06;;;;;;;4.50;2.40;;;10.30;99.90;;;;;;4833540;29;20469;-65
2022/05/09 06:39:54;;;;;;;8.30;3.20;;;10.40;99.90;;;;;;4826923;29;20554;-65
2022/05/09 06:42:43;;;;;;;4.80;2.90;;;10.40;99.90;;;;;;4827566;29;21137;-65
2022/05/09 06:45:33;;;;;;;7.30;2.60;;;10.50;99.90;;;;;;4828986;29;20866;-65
2022/05/09 06:48:21;;;;;;;6.57;2.40;;;10.60;99.90;;;;;;4828949;29;20484;-64
2022/05/09 06:51:09;;;;;;;5.00;2.73;;;10.60;99.90;;;;;;4828890;29;20461;-64
2022/05/09 06:53:58;;;;;;;4.17;2.40;;;10.70;99.90;;;;;;4827042;29;20580;-65
2022/05/09 06:56:46;;;;;;;6.10;2.60;;;10.80;99.90;;;;;;4827885;29;20465;-67
2022/05/09 06:59:35;;;;;;;6.40;2.73;;;10.90;99.90;;;;;;4831122;29;20532;-65
2022/05/09 07:02:24;;;;;;;5.10;2.00;;;11.00;99.90;;;;;;4823801;29;20945;-65
2022/05/09 07:05:15;;;;;;;6.60;2.87;;;11.10;99.90;;;;;;4829637;29;20547;-65
2022/05/09 07:08:03;;;;;;;3.00;2.00;;;11.10;99.90;;;;;;4829818;29;20566;-65
2022/05/09 07:10:52;;;;;;;3.77;2.00;;;11.20;99.90;;;;;;4829265;29;20575;-65
2022/05/09 07:13:58;;;;;;;5.20;2.17;;;11.20;99.90;;;;;;4827812;29;20535;-65
2022/05/09 07:16:46;;;;;;;4.30;2.40;;;11.30;99.90;;;;;;4823633;29;20951;-65
2022/05/09 07:19:36;;;;;;;4.27;2.13;;;11.40;99.90;;;;;;4830452;29;20464;-64
2022/05/09 07:22:24;;;;;;;4.83;2.40;;;11.50;99.90;;;;;;4827807;29;20551;-65
2022/05/09 07:25:14;;;;;;;7.17;2.40;;;11.60;99.90;;;;;;4821219;29;20632;-65
2022/05/09 07:28:02;;;;;;;6.17;2.33;;;11.60;99.90;;;;;;4823419;29;20591;-65
2022/05/09 07:30:50;;;;;;;4.80;2.50;;;11.70;99.90;;;;;;4828390;29;20572;-65
2022/05/09 07:33:39;;;;;;;5.23;2.50;;;11.80;99.90;;;;;;4826767;29;20809;-64
2022/05/09 07:36:28;;;;;;;5.53;2.97;;;11.90;99.90;;;;;;4828487;29;20576;-64
2022/05/09 07:39:16;;;;;;;4.43;2.17;;;12.00;99.90;;;;;;4825162;29;20965;-64
2022/05/09 07:42:06;;;;;;;4.53;2.57;;;12.00;99.90;;;;;;4825225;29;21064;-65
2022/05/09 07:44:56;;;;;;;4.00;2.30;;;12.10;99.90;;;;;;4825103;29;22047;-65
2022/05/09 07:47:44;;;;;;;4.80;2.30;;;12.20;99.90;;;;;;4826374;29;20828;-65
2022/05/09 07:50:32;;;;;;;5.70;2.10;;;12.20;99.90;;;;;;4822575;29;20479;-64
2022/05/09 07:53:25;;;;;;;5.80;2.23;;;12.30;99.90;;;;;;4826481;29;20488;-64
2022/05/09 07:56:13;;;;;;;4.80;1.80;;;12.40;99.90;;;;;;4819570;29;20621;-64
2022/05/09 07:59:02;;;;;;;3.83;1.97;;;12.40;99.90;;;;;;4825093;29;20462;-62
2022/05/09 08:01:52;;;;;;;4.00;2.23;;;12.50;99.90;;;;;;4826256;29;20458;-64
2022/05/09 08:04:40;;;;;;;2.60;1.80;;;12.60;99.90;;;;;;4827804;29;20652;-64
2022/05/09 08:07:29;;;;;;;4.87;2.23;;;12.70;99.90;;;;;;4827444;29;20606;-64
2022/05/09 08:10:18;;;;;;;4.10;2.07;;;12.80;99.90;;;;;;4824616;29;20536;-64
2022/05/09 08:13:07;;;;;;;4.00;2.37;;;12.80;99.90;;;;;;4817638;29;20503;-64
2022/05/09 08:15:56;;;;;;;7.93;3.00;;;12.90;99.90;;;;;;4815870;29;20752;-62
2022/05/09 08:18:44;;;;;;;3.57;2.00;;;13.00;99.90;;;;;;4816787;29;20473;-64
2022/05/09 08:21:36;;;;;;;7.80;2.77;;;13.10;99.90;;;;;;4815716;29;20471;-64
2022/05/09 08:24:25;;;;;;;4.47;2.50;;;13.20;99.90;;;;;;4818973;29;20566;-64
2022/05/09 08:27:14;;;;;;;7.73;2.87;;;13.30;99.90;;;;;;4817672;29;20483;-65
2022/05/09 08:30:03;;;;;;;7.20;2.60;;;13.40;99.90;;;;;;4818971;29;20532;-65
2022/05/09 08:32:55;;;;;;;3.93;2.37;;;13.50;99.90;;;;;;4816573;29;21096;-65
2022/05/09 08:35:44;;;;;;;7.10;2.57;;;13.60;99.90;;;;;;4815049;29;21287;-64
2022/05/09 08:38:32;;;;;;;5.13;2.97;;;13.60;99.90;;;;;;4819942;29;20462;-63
2022/05/09 08:41:22;;;;;;;3.43;2.50;;;13.70;99.90;;;;;;4822507;29;20578;-67
2022/05/09 08:44:21;;;;;;;3.10;2.30;;;13.70;99.90;;;;;;4815528;29;20493;-65
2022/05/09 08:47:50;;;;;;;4.30;2.73;;;13.80;99.90;;;;;;4812294;29;20540;-65
2022/05/09 08:50:53;;;;;;;4.77;2.60;;;14.00;99.90;;;;;;4814589;29;20495;-64
2022/05/09 08:53:45;;;;;;;9.67;2.70;;;14.10;99.90;;;;;;4820240;29;20508;-64
2022/05/09 08:56:34;;;;;;;3.50;2.10;;;14.20;99.90;;;;;;4818794;29;20958;-64
2022/05/09 08:59:27;;;;;;;6.10;2.77;;;14.30;99.90;;;;;;4823647;29;20548;-63
2022/05/09 09:02:21;;;;;;;5.87;2.37;;;14.30;99.90;;;;;;4823278;29;20580;-65
2022/05/09 09:05:13;;;;;;;7.70;2.30;;;14.40;99.90;;;;;;4820516;29;20501;-64
2022/05/09 09:08:17;;;;;;;6.93;2.40;;;14.50;99.90;;;;;;4827031;29;20543;-65
2022/05/09 09:11:13;;;;;;;6.30;2.87;;;14.60;99.90;;;;;;4825944;29;20640;-66
2022/05/09 09:14:10;;;;;;;5.87;2.63;;;14.70;99.90;;;;;;4820189;29;20495;-64
2022/05/09 09:17:08;;;;;;;3.87;2.43;;;14.70;99.90;;;;;;4824400;29;20523;-65
2022/05/09 09:20:09;;;;;;;6.13;3.03;;;14.80;99.90;;;;;;4824010;29;20480;-65
2022/05/09 09:23:14;;;;;;;5.40;2.40;;;14.80;99.90;;;;;;4823010;29;20580;-65
2022/05/09 09:26:04;;;;;;;3.60;2.50;;;14.90;99.90;;;;;;4823452;29;20500;-65
2022/05/09 09:28:57;;;;;;;3.63;2.40;;;14.90;99.90;;;;;;4825009;29;20461;-65
2022/05/09 09:31:49;;;;;;;4.50;2.90;;;15.00;99.90;;;;;;4821374;29;20489;-64
2022/05/09 09:34:47;;;;;;;3.57;2.77;;;15.10;99.90;;;;;;4821544;29;20480;-64
2022/05/09 09:37:40;;;;;;;3.00;2.23;;;15.20;99.90;;;;;;4823633;29;20548;-65
2022/05/09 09:40:28;;;;;;;4.83;3.00;;;15.30;99.90;;;;;;4820052;29;20497;-65
2022/05/09 09:43:17;;;;;;;6.00;3.07;;;15.40;99.90;;;;;;4821453;29;20484;-66
2022/05/09 09:46:07;;;;;;;7.37;2.50;;;15.50;99.90;;;;;;4822961;29;20484;-64
2022/05/09 09:49:08;;;;;;;6.90;2.90;;;15.50;99.90;;;;;;4824653;29;20475;-64
2022/05/09 09:51:58;;;;;;;6.03;2.90;;;15.50;99.90;;;;;;4821052;29;20477;-64
2022/05/09 09:54:52;;;;;;;6.20;2.63;;;15.50;99.90;;;;;;4822529;29;20885;-69
2022/05/09 09:57:41;;;;;;;5.30;2.93;;;15.60;99.90;;;;;;4822595;29;20453;-65
2022/05/09 10:00:31;;;;;;;6.23;2.60;;;15.70;99.90;;;;;;4822811;29;20520;-65
2022/05/09 10:03:30;;;;;;;3.20;2.27;;;15.70;99.90;;;;;;4820622;29;20489;-65
2022/05/09 10:06:21;;;;;;;3.10;2.30;;;15.80;99.90;;;;;;4818428;29;20484;-65
2022/05/09 10:09:20;;;;;;;2.80;2.23;;;15.90;99.90;;;;;;4820320;29;21246;-65
2022/05/09 10:12:18;;;;;;;3.30;2.60;;;16.00;99.90;;;;;;4822877;29;20564;-64
2022/05/09 10:15:23;;;;;;;11.57;3.40;;;16.10;99.90;;;;;;4820306;29;21528;-64
2022/05/09 10:18:19;;;;;;;5.33;2.43;;;16.20;99.90;;;;;;4820125;29;20952;-65
2022/05/09 10:24:52;;;;;;;2.20;2.00;;;16.30;99.90;;;;;;4820024;29;20488;-65
2022/05/09 10:27:45;;;;;;;4.97;2.50;;;16.30;99.90;;;;;;4823793;29;20567;-65
2022/05/09 10:30:36;;;;;;;4.70;2.60;;;16.40;99.90;;;;;;4819159;29;20583;-65
2022/05/09 10:33:31;;;;;;;4.20;2.60;;;16.50;99.90;;;;;;4822989;29;20487;-65
2022/05/09 10:36:23;;;;;;;3.83;2.27;;;16.60;99.90;;;;;;4820241;29;20493;-64
2022/05/09 10:39:16;;;;;;;5.17;2.60;;;16.70;99.90;;;;;;4822488;29;20469;-64
2022/05/09 10:42:10;;;;;;;4.37;2.60;;;16.80;99.90;;;;;;4823020;29;20685;-64
2022/05/09 10:45:04;;;;;;;5.93;2.80;;;16.90;99.90;;;;;;4821982;29;20583;-64
2022/05/09 10:47:57;;;;;;;5.10;2.60;;;17.00;99.90;;;;;;4821291;29;20472;-65
2022/05/09 10:50:49;;;;;;;3.27;2.23;;;17.10;99.90;;;;;;4818983;29;20496;-64
2022/05/09 10:53:44;;;;;;;3.20;2.10;;;17.20;99.90;;;;;;4825400;29;20492;-65
2022/05/09 10:56:39;;;;;;;3.00;2.30;;;17.20;99.90;;;;;;4818978;29;20457;-65
2022/05/09 10:59:31;;;;;;;4.37;2.23;;;17.30;99.90;;;;;;4819961;29;20476;-64
2022/05/09 11:02:24;;;;;;;3.83;2.63;;;17.40;99.90;;;;;;4811619;29;20564;-66
2022/05/09 11:05:14;;;;;;;5.10;2.77;;;17.40;99.90;;;;;;4819395;29;20472;-65
2022/05/09 11:08:10;;;;;;;4.93;2.40;;;17.60;99.90;;;;;;4820356;29;20539;-66
2022/05/09 11:11:09;;;;;;;4.00;2.40;;;17.70;99.90;;;;;;4824385;29;20494;-66
2022/05/09 11:14:07;;;;;;;5.37;2.10;;;17.80;99.90;;;;;;4824662;29;20496;-65
2022/05/09 11:17:16;;;;;;;6.20;2.10;;;17.90;99.90;;;;;;4825740;29;21062;-65
2022/05/09 11:20:14;;;;;;;4.00;2.53;;;18.00;99.90;;;;;;4816271;29;20500;-64
2022/05/09 11:23:32;;;;;;;4.70;2.17;;;18.20;99.90;;;;;;4824361;29;20514;-65
2022/05/09 11:26:28;;;;;;;5.20;2.40;;;18.40;99.90;;;;;;4821267;29;20507;-65
2022/05/09 11:29:40;;;;;;;5.60;2.50;;;18.50;99.90;;;;;;4818201;29;20508;-65
2022/05/09 11:32:37;;;;;;;5.50;2.57;;;18.60;99.90;;;;;;4817309;29;20496;-65
2022/05/09 11:35:32;;;;;;;5.03;2.70;;;18.70;99.90;;;;;;4817990;29;20484;-67
2022/05/09 11:38:41;;;;;;;4.60;2.77;;;18.80;99.90;;;;;;4821483;29;20609;-65
2022/05/09 11:41:36;;;;;;;4.10;2.60;;;18.90;99.90;;;;;;4821717;29;20454;-64
2022/05/09 11:44:30;;;;;;;5.10;3.03;;;19.00;99.90;;;;;;4819534;29;21240;-64
2022/05/09 11:47:34;;;;;;;4.10;2.37;;;19.10;99.90;;;;;;4820995;29;21151;-64
2022/05/09 11:50:32;;;;;;;5.17;3.00;;;19.20;99.90;;;;;;4819626;29;20986;-65
2022/05/09 11:53:25;;;;;;;5.47;2.73;;;19.30;99.90;;;;;;4821487;29;21068;-65
2022/05/09 11:56:14;;;;;;;4.93;2.47;;;19.50;99.90;;;;;;4825581;29;20602;-65
2022/05/09 11:59:04;;;;;;;3.90;2.40;;;19.60;99.90;;;;;;4820228;29;20467;-66
2022/05/09 12:01:58;;;;;;;4.40;2.53;;;19.80;99.90;;;;;;4825618;29;20526;-65
2022/05/09 12:04:48;;;;;;;3.70;2.30;;;20.00;99.90;;;;;;4819114;29;20488;-65
2022/05/09 12:07:55;;;;;;;4.03;2.30;;;20.10;99.90;;;;;;4825785;29;20528;-65
2022/05/09 12:10:45;;;;;;;3.17;2.70;;;20.30;99.90;;;;;;4819886;29;20877;-65
2022/05/09 12:13:51;;;;;;;3.97;2.20;;;20.40;98.60;;;;;;4819646;29;20487;-65
2022/05/09 12:16:51;;;;;;;3.40;2.30;;;20.40;99.90;;;;;;4818073;29;20605;-65
2022/05/09 12:19:39;;;;;;;5.10;2.33;;;20.60;98.50;;;;;;4824066;29;20487;-65
2022/05/09 12:22:47;;;;;;;4.50;2.40;;;20.60;99.90;;;;;;4817691;29;21000;-65
2022/05/09 12:26:05;;;;;;;4.30;2.67;;;20.80;99.90;;;;;;4820344;29;20597;-66
2022/05/09 12:29:06;;;;;;;4.00;2.50;;;20.90;98.50;;;;;;4816130;29;20481;-65
2022/05/09 12:31:56;;;;;;;4.27;2.63;;;21.10;97.80;;;;;;4822478;29;20552;-65
2022/05/09 12:34:46;;;;;;;4.07;2.33;;;21.20;96.50;;;;;;4820040;29;20495;-66
2022/05/09 12:37:44;;;;;;;6.17;2.47;;;21.40;96.00;;;;;;4821563;29;20465;-65
2022/05/09 12:40:33;;;;;;;3.77;2.33;;;21.50;93.40;;;;;;4826857;29;20449;-65
2022/05/09 12:43:23;;;;;;;2.93;2.30;;;21.60;92.60;;;;;;4820216;29;20484;-65
2022/05/09 12:46:21;;;;;;;4.83;2.53;;;21.70;92.70;;;;;;4820650;29;20484;-65
2022/05/09 12:49:10;;;;;;;3.40;2.00;;;21.80;92.00;;;;;;4817585;29;20465;-64
2022/05/09 12:51:59;;;;;;;3.00;2.67;;;21.80;91.60;;;;;;4819089;29;21022;-64
2022/05/09 12:55:52;;;;;;;5.20;2.20;;;21.90;93.60;;;;;;4825648;29;20472;-65
2022/05/09 12:57:59;;;;;;;4.23;2.20;;;22.10;94.20;;;;;;4822200;29;20606;-65
2022/05/09 13:00:49;;;;;;;3.20;2.27;;;22.20;90.90;;;;;;4825385;29;20458;-64
2022/05/09 13:04:00;;;;;;;6.23;2.80;;;22.40;89.20;;;;;;4820986;29;20527;-64
2022/05/09 13:06:50;;;;;;;3.83;2.30;;;22.50;90.60;;;;;;4817091;29;20466;-65
2022/05/09 13:09:47;;;;;;;4.50;2.30;;;22.70;91.10;;;;;;4824546;29;21640;-66
2022/05/09 13:12:38;;;;;;;5.00;2.63;;;22.70;86.90;;;;;;4813277;29;21139;-65
2022/05/09 13:15:27;;;;;;;3.73;2.50;;;22.70;88.60;;;;;;4817367;29;20481;-66
2022/05/09 13:18:22;;;;;;;4.80;2.50;;;22.70;90.10;;;;;;4818420;29;20484;-66
2022/05/09 13:21:11;;;;;;;3.20;2.70;;;22.90;88.60;;;;;;4815040;29;20575;-66
2022/05/09 13:24:03;;;;;;;3.70;2.33;;;23.10;90.30;;;;;;4812959;29;20497;-67
2022/05/09 13:26:53;;;;;;;4.43;2.80;;;23.30;91.40;;;;;;4815813;29;20487;-67
2022/05/09 13:29:42;;;;;;;3.87;2.97;;;23.40;85.50;;;;;;4818013;29;20464;-66
2022/05/09 13:32:34;;;;;;;3.67;2.60;;;23.60;84.40;;;;;;4817701;29;20505;-66
2022/05/09 13:35:27;;;;;;;2.80;2.53;;;23.70;87.10;;;;;;4817616;29;20484;-66
2022/05/09 13:38:21;;;;;;;4.77;2.50;;;23.80;83.30;;;;;;4819338;29;20606;-66
2022/05/09 13:41:12;;;;;;;4.73;2.60;;;23.80;86.30;;;;;;4817762;29;20473;-66
2022/05/09 13:44:02;;;;;;;4.73;2.70;;;24.00;80.80;;;;;;4819526;29;21537;-66
2022/05/09 13:46:52;;;;;;;4.93;2.77;;;24.10;82.00;;;;;;4820023;29;20464;-66
2022/05/09 13:49:40;;;;;;;6.20;2.80;;;24.20;80.10;;;;;;4822598;29;20857;-69
2022/05/09 13:52:34;;;;;;;3.97;2.47;;;24.30;78.60;;;;;;4815636;29;20499;-66
2022/05/09 13:55:28;;;;;;;5.37;2.60;;;24.40;77.10;;;;;;4819193;29;21001;-66
2022/05/09 13:58:22;;;;;;;4.27;2.63;;;24.50;78.40;;;;;;4820793;29;20520;-66
2022/05/09 14:01:13;;;;;;;4.00;2.37;;;24.60;78.90;;;;;;4812646;29;20467;-66
2022/05/09 14:04:01;;;;;;;3.93;2.60;;;24.70;75.90;;;;;;4814317;29;21021;-65
2022/05/09 14:06:51;;;;;;;3.60;2.90;;;24.90;76.20;;;;;;4820482;29;20523;-66
2022/05/09 14:09:41;;;;;;;4.10;2.30;;;24.90;75.10;;;;;;4819098;29;20492;-66
2022/05/09 14:12:29;;;;;;;4.67;2.90;;;24.90;74.10;;;;;;4822727;29;21563;-66
2022/05/09 14:15:19;;;;;;;4.80;2.97;;;25.20;76.90;;;;;;4819138;29;20487;-65
2022/05/09 14:18:12;;;;;;;5.00;2.70;;;25.40;74.40;;;;;;4816113;29;20504;-65
2022/05/09 14:21:04;;;;;;;5.07;2.60;;;25.50;74.30;;;;;;4825173;29;20496;-65
2022/05/09 14:23:58;;;;;;;3.97;2.67;;;25.60;73.00;;;;;;4826135;29;20497;-65
2022/05/09 14:30:03;;;;;;;5.47;2.73;;;25.90;70.10;;;;;;4817255;29;20568;-65
2022/05/09 14:32:54;;;;;;;8.47;3.10;;;26.80;66.90;;;;;;4824875;29;20656;-66
2022/05/09 14:35:44;;;;;;;4.27;2.80;;;27.80;66.30;;;;;;4828532;29;20477;-65
2022/05/09 14:38:36;;;;;;;5.57;2.87;;;28.20;62.60;;;;;;4825569;29;20464;-65
2022/05/09 14:41:37;;;;;;;3.13;2.60;;;28.30;62.60;;;;;;4819195;29;20465;-66
2022/05/09 14:44:31;;;;;;;4.17;3.10;;;28.00;64.30;;;;;;4821447;29;20491;-66
2022/05/09 14:47:25;;;;;;;2.90;2.63;;;27.20;61.50;;;;;;4826261;29;20469;-66
2022/05/09 14:50:22;;;;;;;6.43;2.60;;;26.90;65.00;;;;;;4822120;29;20578;-66
2022/05/09 14:53:13;;;;;;;4.40;2.37;;;26.80;64.40;;;;;;4821068;29;20553;-66
2022/05/09 14:59:19;;;;;;;6.60;2.70;;;26.60;65.80;;;;;;4820372;29;20472;-65
2022/05/09 15:02:11;;;;;;;3.90;2.70;;;26.60;65.00;;;;;;4820645;29;20596;-66
2022/05/09 15:05:01;;;;;;;4.20;2.73;;;26.50;65.00;;;;;;4821924;29;20496;-65
2022/05/09 15:07:54;;;;;;;3.30;2.97;;;26.40;65.60;;;;;;4821458;29;20473;-66
2022/05/09 15:10:43;;;;;;;3.60;2.67;;;26.30;63.30;;;;;;4823175;29;20472;-66